Time;durP1;ratioP1;P1;durP2;ratioP2;P2;SDS_P1;SDS_P2;PMS_P1;PMS_P2;Temp;Humidity;BMP_temperature;BMP_pressure;BME280_temperature;BME280_humidity;BME280_pressure;Samples;Min_cycle;Max_cycle;Signal;HPM_P1;HPM_P2
2022/12/27 00:02:23;;;;;;;8.68;3.90;;;3.90;99.90;;;;;;7358030;19;20620;-55
2022/12/27 00:04:52;;;;;;;14.32;3.65;;;3.90;99.90;;;;;;7357210;19;20018;-55
2022/12/27 00:07:19;;;;;;;10.07;3.55;;;3.90;99.90;;;;;;7358074;19;20037;-56
2022/12/27 00:09:52;;;;;;;8.98;3.17;;;3.90;99.90;;;;;;7388964;19;20021;-57
2022/12/27 00:12:18;;;;;;;10.05;3.00;;;4.00;99.90;;;;;;7378951;19;20035;-56
2022/12/27 00:14:45;;;;;;;10.43;3.30;;;4.00;99.90;;;;;;7380107;19;20404;-55
2022/12/27 00:17:13;;;;;;;13.15;3.08;;;4.10;99.90;;;;;;7362836;19;20054;-55
2022/12/27 00:19:40;;;;;;;14.68;3.30;;;4.20;99.90;;;;;;7369246;19;20014;-54
2022/12/27 00:22:08;;;;;;;11.43;3.22;;;4.10;99.90;;;;;;7371013;19;20025;-57
2022/12/27 00:24:35;;;;;;;11.48;2.90;;;4.10;99.90;;;;;;7388065;19;20018;-57
2022/12/27 00:27:01;;;;;;;10.63;3.03;;;4.10;99.90;;;;;;7390650;19;20022;-56
2022/12/27 00:29:27;;;;;;;9.02;3.35;;;4.10;99.90;;;;;;7389599;19;20098;-58
2022/12/27 00:31:54;;;;;;;12.38;3.15;;;4.10;99.90;;;;;;7389432;19;20102;-56
2022/12/27 00:34:23;;;;;;;11.20;3.15;;;4.10;99.90;;;;;;7386970;19;20034;-57
2022/12/27 00:36:50;;;;;;;8.73;3.55;;;4.10;99.90;;;;;;7387702;19;20342;-57
2022/12/27 00:39:16;;;;;;;11.73;3.33;;;4.00;99.90;;;;;;7390060;19;20011;-56
2022/12/27 00:41:42;;;;;;;12.10;3.08;;;4.00;99.90;;;;;;7391106;19;20456;-56
2022/12/27 00:44:09;;;;;;;10.70;2.70;;;4.10;99.90;;;;;;7394797;19;20074;-56
2022/12/27 00:46:35;;;;;;;8.85;3.00;;;4.10;99.90;;;;;;7396695;19;20018;-57
2022/12/27 00:49:02;;;;;;;9.82;3.83;;;4.10;99.90;;;;;;7397780;19;20438;-57
2022/12/27 00:51:28;;;;;;;10.05;3.22;;;4.10;99.90;;;;;;7397583;19;20485;-56
2022/12/27 00:53:57;;;;;;;17.10;3.83;;;4.10;99.90;;;;;;7396569;19;20034;-58
2022/12/27 00:56:26;;;;;;;15.85;3.70;;;4.10;99.90;;;;;;7397415;19;20014;-56
2022/12/27 00:58:58;;;;;;;10.98;3.38;;;4.10;99.90;;;;;;7396804;19;20572;-56
2022/12/27 01:01:27;;;;;;;14.98;3.42;;;4.10;99.90;;;;;;7395051;19;20478;-56
2022/12/27 01:03:53;;;;;;;13.15;3.33;;;4.10;99.90;;;;;;7383396;19;20018;-57
2022/12/27 01:06:22;;;;;;;12.20;3.33;;;4.00;99.90;;;;;;7397957;19;20022;-57
2022/12/27 01:08:49;;;;;;;9.73;3.58;;;4.00;99.90;;;;;;7390934;19;20006;-54
2022/12/27 01:11:17;;;;;;;13.13;2.53;;;4.00;99.90;;;;;;7364616;19;20035;-54
2022/12/27 01:13:44;;;;;;;8.30;2.65;;;4.00;99.90;;;;;;7368943;19;20039;-54
2022/12/27 01:16:16;;;;;;;6.47;2.75;;;4.00;99.90;;;;;;7366393;19;20367;-55
2022/12/27 01:18:44;;;;;;;12.40;2.92;;;4.00;99.90;;;;;;7392276;19;20481;-57
2022/12/27 01:21:12;;;;;;;11.20;3.38;;;4.00;99.90;;;;;;7395363;19;20007;-57
2022/12/27 01:23:40;;;;;;;11.25;2.90;;;4.00;99.90;;;;;;7395238;19;20022;-57
2022/12/27 01:26:15;;;;;;;9.73;2.70;;;4.00;99.90;;;;;;7395923;19;20558;-57
2022/12/27 01:28:42;;;;;;;15.35;3.38;;;4.00;99.90;;;;;;7394974;19;20029;-57
2022/12/27 01:31:18;;;;;;;15.05;3.58;;;3.90;99.90;;;;;;7396579;19;20022;-58
2022/12/27 01:33:45;;;;;;;12.98;3.50;;;3.90;99.90;;;;;;7393147;19;20386;-57
2022/12/27 01:36:30;;;;;;;10.00;3.17;;;3.90;99.90;;;;;;7393310;19;20475;-57
2022/12/27 01:38:58;;;;;;;13.60;3.17;;;3.90;99.90;;;;;;7393967;19;20506;-56
2022/12/27 01:44:39;;;;;;;8.30;3.25;;;4.10;99.90;;;;;;7396707;19;20007;-57
2022/12/27 01:47:33;;;;;;;9.55;2.90;;;4.10;99.90;;;;;;7393094;19;20019;-57
2022/12/27 01:50:12;;;;;;;9.48;3.13;;;4.10;99.90;;;;;;7395973;19;20024;-56
2022/12/27 01:52:47;;;;;;;12.95;3.45;;;4.10;99.90;;;;;;7394769;19;20459;-56
2022/12/27 01:55:22;;;;;;;15.73;3.00;;;4.20;99.90;;;;;;7393093;19;20400;-57
2022/12/27 01:57:51;;;;;;;8.38;2.80;;;4.20;99.90;;;;;;7396350;19;20011;-57
2022/12/27 02:00:24;;;;;;;17.02;3.33;;;4.20;99.90;;;;;;7395522;19;20015;-56
2022/12/27 02:02:51;;;;;;;14.13;3.65;;;4.20;99.90;;;;;;7394533;19;20019;-57
2022/12/27 02:05:19;;;;;;;17.77;3.65;;;4.20;99.90;;;;;;7394697;19;20038;-56
2022/12/27 02:08:03;;;;;;;11.27;3.17;;;4.20;99.90;;;;;;7394776;19;20030;-56
2022/12/27 02:10:42;;;;;;;16.48;3.63;;;4.30;99.90;;;;;;7393410;19;20018;-58
2022/12/27 02:13:09;;;;;;;13.38;3.67;;;4.40;99.90;;;;;;7391838;19;20493;-57
2022/12/27 02:15:36;;;;;;;10.95;3.03;;;4.50;99.90;;;;;;7395621;19;20114;-56
2022/12/27 02:18:03;;;;;;;8.30;2.88;;;4.60;99.90;;;;;;7392984;19;20015;-57
2022/12/27 02:20:38;;;;;;;10.52;3.00;;;4.70;99.90;;;;;;7392215;19;20018;-56
2022/12/27 02:26:49;;;;;;;12.70;3.60;;;4.70;99.90;;;;;;7374282;19;20018;-55
2022/12/27 02:29:36;;;;;;;9.00;3.47;;;4.60;99.90;;;;;;7374545;19;20015;-55
2022/12/27 02:32:22;;;;;;;11.57;3.25;;;4.60;99.90;;;;;;7372748;19;20019;-55
2022/12/27 02:34:59;;;;;;;15.38;3.33;;;4.50;99.90;;;;;;7384441;19;20031;-57
2022/12/27 02:37:30;;;;;;;14.38;3.33;;;4.50;99.90;;;;;;7390846;19;21585;-56
2022/12/27 02:53:02;;;;;;;14.00;3.90;;;4.40;99.90;;;;;;7392140;19;20534;-57
2022/12/27 02:55:11;;;;;;;9.88;3.53;;;4.50;99.90;;;;;;7381486;19;20023;-57
2022/12/27 02:58:18;;;;;;;10.80;3.30;;;4.50;99.90;;;;;;7392005;19;20075;-56
2022/12/27 03:04:08;;;;;;;14.70;3.60;;;4.60;99.90;;;;;;7388936;19;20025;-56
2022/12/27 03:06:40;;;;;;;21.45;4.30;;;4.60;99.90;;;;;;7375735;19;20044;-57
2022/12/27 03:15:53;;;;;;;10.30;3.17;;;4.50;99.90;;;;;;7367801;19;20018;-55
2022/12/27 03:18:08;;;;;;;7.80;3.38;;;4.50;99.90;;;;;;7389467;19;20022;-56
2022/12/27 03:26:10;;;;;;;12.82;2.88;;;4.60;99.90;;;;;;7367865;19;20029;-55
2022/12/27 03:34:34;;;;;;;10.55;2.83;;;4.60;99.90;;;;;;7362343;19;20486;-56
2022/12/27 03:40:07;;;;;;;13.40;3.72;;;4.70;99.90;;;;;;7372502;19;20018;-55
2022/12/27 03:48:22;;;;;;;8.13;3.08;;;4.70;99.90;;;;;;7376926;19;20015;-57
2022/12/27 03:50:55;;;;;;;10.82;2.78;;;4.70;99.90;;;;;;7368843;19;20018;-56
2022/12/27 03:53:38;;;;;;;11.23;3.28;;;4.70;99.90;;;;;;7361206;19;20046;-54
2022/12/27 03:56:06;;;;;;;7.97;2.75;;;4.70;99.90;;;;;;7368928;19;20418;-54
2022/12/27 03:58:33;;;;;;;9.45;3.03;;;4.70;99.90;;;;;;7364358;19;20442;-54
2022/12/27 04:00:59;;;;;;;13.45;3.58;;;4.60;99.90;;;;;;7364066;19;20022;-55
2022/12/27 04:03:25;;;;;;;12.55;2.83;;;4.60;99.90;;;;;;7366590;19;20668;-55
2022/12/27 04:05:52;;;;;;;15.13;3.30;;;4.60;99.90;;;;;;7365757;19;20438;-55
2022/12/27 04:35:51;;;;;;;12.10;2.95;;;4.50;99.90;;;;;;7388079;19;20036;-56
2022/12/27 04:38:18;;;;;;;13.68;3.78;;;4.50;99.90;;;;;;7388262;19;20027;-56
2022/12/27 04:55:21;;;;;;;12.70;2.70;;;4.50;99.90;;;;;;7388055;19;20018;-56
2022/12/27 04:57:48;;;;;;;16.35;3.55;;;4.50;99.90;;;;;;7388405;19;20040;-57
2022/12/27 05:03:09;;;;;;;13.85;3.22;;;4.50;99.90;;;;;;7387756;19;20397;-56
2022/12/27 05:05:36;;;;;;;8.43;2.58;;;4.50;99.90;;;;;;7386458;19;20015;-57
2022/12/27 05:16:20;;;;;;;11.15;2.47;;;4.50;99.90;;;;;;7387768;19;20018;-55
2022/12/27 05:18:46;;;;;;;16.98;3.70;;;4.60;99.90;;;;;;7388362;19;20019;-57
2022/12/27 05:21:12;;;;;;;11.57;2.95;;;4.70;99.90;;;;;;7387614;19;20014;-56
2022/12/27 05:26:29;;;;;;;8.40;3.10;;;4.70;99.90;;;;;;7388425;19;20086;-56
2022/12/27 05:28:56;;;;;;;13.95;3.78;;;4.70;99.90;;;;;;7386568;19;20081;-54
2022/12/27 05:31:25;;;;;;;7.97;2.92;;;4.70;99.90;;;;;;7388147;19;20033;-56
2022/12/27 05:33:52;;;;;;;10.65;2.45;;;4.70;99.90;;;;;;7393369;19;20528;-56
2022/12/27 05:36:20;;;;;;;12.38;3.05;;;4.80;99.90;;;;;;7395109;19;20033;-56
2022/12/27 05:38:48;;;;;;;10.93;3.63;;;4.80;99.90;;;;;;7394652;19;20034;-56
2022/12/27 05:41:15;;;;;;;14.48;3.13;;;4.80;99.90;;;;;;7394283;19;20015;-56
2022/12/27 05:43:42;;;;;;;12.75;2.90;;;4.80;99.90;;;;;;7396746;19;20042;-56
2022/12/27 05:46:14;;;;;;;9.77;2.75;;;4.80;99.90;;;;;;7394862;19;20018;-55
2022/12/27 05:48:41;;;;;;;11.77;3.05;;;4.70;99.90;;;;;;7396103;19;20014;-56
2022/12/27 05:51:17;;;;;;;9.07;3.40;;;4.60;99.90;;;;;;7394749;19;20477;-56
2022/12/27 05:53:44;;;;;;;;;;;4.70;99.90;;;;;;7395370;19;20024;-56
2022/12/27 05:56:16;;;;;;;8.65;3.20;;;4.70;99.90;;;;;;7393702;19;20391;-56
2022/12/27 05:58:42;;;;;;;;;;;4.60;99.90;;;;;;7396553;19;20808;-56
2022/12/27 06:01:11;;;;;;;14.27;2.92;;;4.60;99.90;;;;;;7393182;19;20270;-56
2022/12/27 06:03:39;;;;;;;12.20;3.90;;;4.70;99.90;;;;;;7394520;19;20473;-55
2022/12/27 06:06:06;;;;;;;17.30;3.08;;;4.70;99.90;;;;;;7394169;19;20018;-55
2022/12/27 06:08:33;;;;;;;10.85;2.83;;;4.70;99.90;;;;;;7393894;19;20015;-56
2022/12/27 06:11:15;;;;;;;9.40;3.10;;;4.70;99.90;;;;;;7392429;19;20082;-57
2022/12/27 06:13:42;;;;;;;9.07;2.35;;;4.70;99.90;;;;;;7392929;19;20039;-56
2022/12/27 06:16:12;;;;;;;9.63;2.63;;;4.80;99.90;;;;;;7393502;19;20053;-56
2022/12/27 06:18:43;;;;;;;14.20;2.90;;;4.70;99.90;;;;;;7394896;19;20015;-56
2022/12/27 06:21:15;;;;;;;9.95;2.85;;;4.80;99.90;;;;;;7394403;19;20438;-56
2022/12/27 06:23:44;;;;;;;9.60;3.50;;;4.80;99.90;;;;;;7396526;19;20014;-56
2022/12/27 06:26:14;;;;;;;11.55;3.25;;;4.80;99.90;;;;;;7393460;19;20026;-56
2022/12/27 06:28:41;;;;;;;12.00;3.05;;;4.80;99.90;;;;;;7394258;19;20070;-56
2022/12/27 06:31:09;;;;;;;8.80;3.10;;;4.80;99.90;;;;;;7394755;19;20369;-56
2022/12/27 06:33:47;;;;;;;9.68;3.20;;;4.70;99.90;;;;;;7391669;19;20011;-56
2022/12/27 06:36:16;;;;;;;12.27;3.40;;;4.70;99.90;;;;;;7392805;19;20561;-56
2022/12/27 06:38:43;;;;;;;10.13;2.90;;;4.70;99.90;;;;;;7392976;19;20474;-56
2022/12/27 06:41:12;;;;;;;14.20;4.15;;;4.60;99.90;;;;;;7379854;19;20026;-56
2022/12/27 06:43:41;;;;;;;12.07;3.28;;;4.60;99.90;;;;;;7375294;19;20398;-54
2022/12/27 06:46:13;;;;;;;10.55;2.65;;;4.50;99.90;;;;;;7372718;19;20380;-53
2022/12/27 06:48:40;;;;;;;11.70;3.30;;;4.50;99.90;;;;;;7371857;19;20010;-54
2022/12/27 06:51:09;;;;;;;13.98;3.92;;;4.40;99.90;;;;;;7371908;19;20022;-53
2022/12/27 06:53:37;;;;;;;17.42;4.20;;;4.40;99.90;;;;;;7370250;19;20106;-53
2022/12/27 06:56:08;;;;;;;15.13;4.07;;;4.30;99.90;;;;;;7372416;19;20822;-54
2022/12/27 06:58:34;;;;;;;10.90;3.22;;;4.30;99.90;;;;;;7370905;19;20589;-54
2022/12/27 07:01:33;;;;;;;11.80;3.42;;;4.30;99.90;;;;;;7376970;19;20037;-54
2022/12/27 07:04:00;;;;;;;15.50;3.75;;;4.30;99.90;;;;;;7366975;19;20502;-56
2022/12/27 07:06:28;;;;;;;12.15;4.05;;;4.30;99.90;;;;;;7371662;19;20474;-54
2022/12/27 07:08:55;;;;;;;11.07;3.38;;;4.30;99.90;;;;;;7373390;19;20014;-56
2022/12/27 07:11:22;;;;;;;12.90;3.97;;;4.20;99.90;;;;;;7391499;19;20539;-55
2022/12/27 07:13:51;;;;;;;11.13;3.40;;;4.20;99.90;;;;;;7379906;19;20029;-56
2022/12/27 07:16:23;;;;;;;13.70;3.95;;;4.20;99.90;;;;;;7391543;19;20011;-56
2022/12/27 07:18:50;;;;;;;12.70;3.75;;;4.20;99.90;;;;;;7392674;19;20078;-56
2022/12/27 07:21:20;;;;;;;8.70;3.60;;;4.30;99.90;;;;;;7390486;19;20018;-56
2022/12/27 07:23:52;;;;;;;12.10;4.05;;;4.20;99.90;;;;;;7392910;19;20028;-56
2022/12/27 07:26:28;;;;;;;15.32;4.85;;;4.20;99.90;;;;;;7389547;19;20018;-55
2022/12/27 07:28:56;;;;;;;13.10;3.80;;;4.30;99.90;;;;;;7391279;19;20517;-56
2022/12/27 07:31:28;;;;;;;12.50;4.50;;;4.30;99.90;;;;;;7390378;19;20037;-55
2022/12/27 07:33:56;;;;;;;11.35;3.92;;;4.30;99.90;;;;;;7388419;19;20513;-56
2022/12/27 07:36:28;;;;;;;15.90;4.35;;;4.30;99.90;;;;;;7388543;19;20034;-56
2022/12/27 07:38:54;;;;;;;18.48;4.32;;;4.30;99.90;;;;;;7391691;19;20010;-55
2022/12/27 07:41:22;;;;;;;13.52;4.30;;;4.30;99.90;;;;;;7390165;19;20035;-56
2022/12/27 07:43:48;;;;;;;16.30;4.15;;;4.30;99.90;;;;;;7390085;19;20014;-56
2022/12/27 07:46:20;;;;;;;12.40;3.42;;;4.30;99.90;;;;;;7389506;19;20026;-57
2022/12/27 07:48:55;;;;;;;12.20;3.10;;;4.30;99.90;;;;;;7384856;19;20018;-55
2022/12/27 07:51:22;;;;;;;14.52;3.55;;;4.20;99.90;;;;;;7390834;19;20011;-56
2022/12/27 07:53:50;;;;;;;13.10;3.55;;;4.20;99.90;;;;;;7389413;19;20021;-56
2022/12/27 07:56:24;;;;;;;9.90;3.40;;;4.20;99.90;;;;;;7390227;19;20015;-56
2022/12/27 07:58:53;;;;;;;12.80;3.85;;;4.20;99.90;;;;;;7390277;19;20018;-55
2022/12/27 08:01:24;;;;;;;9.20;2.95;;;4.10;99.90;;;;;;7390532;19;20062;-55
2022/12/27 08:03:50;;;;;;;11.63;3.30;;;4.10;99.90;;;;;;7391345;19;20595;-57
2022/12/27 08:06:28;;;;;;;10.90;3.55;;;4.10;99.90;;;;;;7387613;19;20378;-55
2022/12/27 08:09:03;;;;;;;11.27;3.42;;;4.20;99.90;;;;;;7388566;19;20014;-56
2022/12/27 08:11:30;;;;;;;15.60;4.03;;;4.20;99.90;;;;;;7389723;19;20493;-55
2022/12/27 08:13:56;;;;;;;13.80;3.33;;;4.10;99.90;;;;;;7387976;19;20424;-56
2022/12/27 08:16:24;;;;;;;11.82;3.63;;;4.10;99.90;;;;;;7381404;19;20022;-55
2022/12/27 08:18:54;;;;;;;8.88;3.38;;;4.10;99.90;;;;;;7388491;19;20025;-55
2022/12/27 08:21:22;;;;;;;13.02;3.65;;;4.20;99.90;;;;;;7390860;19;20041;-56
2022/12/27 08:23:48;;;;;;;13.70;4.20;;;4.20;99.90;;;;;;7388767;19;20455;-55
2022/12/27 08:26:15;;;;;;;33.38;18.73;;;4.20;99.90;;;;;;7379051;19;20023;-53
2022/12/27 08:28:42;;;;;;;14.25;5.35;;;4.40;99.90;;;;;;7384225;19;20022;-55
2022/12/27 08:31:09;;;;;;;16.05;4.90;;;4.40;99.90;;;;;;7386811;19;20048;-55
2022/12/27 08:33:36;;;;;;;12.45;4.68;;;4.40;99.90;;;;;;7383015;19;20390;-54
2022/12/27 08:36:06;;;;;;;12.20;4.15;;;4.50;99.90;;;;;;7384139;19;20010;-56
2022/12/27 08:38:34;;;;;;;10.52;4.15;;;4.60;99.90;;;;;;7392909;19;20026;-55
2022/12/27 08:41:01;;;;;;;12.73;3.70;;;4.80;99.90;;;;;;7393755;19;20018;-56
2022/12/27 08:43:30;;;;;;;14.57;4.15;;;4.90;99.90;;;;;;7380276;19;20026;-54
2022/12/27 08:46:02;;;;;;;17.75;5.03;;;4.90;99.90;;;;;;7373535;19;20493;-52
2022/12/27 08:56:18;;;;;;;11.85;3.47;;;5.40;99.90;;;;;;7373581;19;20003;-55
2022/12/27 08:58:47;;;;;;;14.85;3.80;;;5.50;99.90;;;;;;7393415;19;20478;-56
2022/12/27 09:01:18;;;;;;;11.90;3.50;;;5.40;99.90;;;;;;7391291;19;20019;-55
2022/12/27 09:03:44;;;;;;;11.85;3.60;;;5.70;99.90;;;;;;7393308;19;20007;-56
2022/12/27 09:06:17;;;;;;;12.25;3.60;;;5.60;99.90;;;;;;7400395;19;20489;-56
2022/12/27 09:08:45;;;;;;;11.15;3.35;;;5.40;99.90;;;;;;7398045;19;20030;-56
2022/12/27 09:11:19;;;;;;;14.52;5.13;;;5.40;99.90;;;;;;7399548;19;20712;-56
2022/12/27 09:13:48;;;;;;;16.23;4.13;;;5.40;99.90;;;;;;7399826;19;20480;-56
2022/12/27 09:16:19;;;;;;;14.85;3.75;;;5.40;99.90;;;;;;7398707;19;20035;-56
2022/12/27 09:18:55;;;;;;;16.23;3.77;;;5.40;99.90;;;;;;7398734;19;20015;-57
2022/12/27 09:21:30;;;;;;;12.25;3.45;;;5.50;99.90;;;;;;7395570;19;20304;-56
2022/12/27 09:24:04;;;;;;;12.80;3.28;;;5.60;99.90;;;;;;7394115;19;20452;-55
2022/12/27 09:26:31;;;;;;;16.13;4.22;;;5.80;99.90;;;;;;7396417;19;20018;-56
2022/12/27 09:28:58;;;;;;;10.45;3.70;;;5.90;99.90;;;;;;7395798;19;20373;-56
2022/12/27 09:31:25;;;;;;;14.43;4.03;;;6.00;99.90;;;;;;7396906;19;20590;-55
2022/12/27 09:33:53;;;;;;;9.27;3.80;;;6.30;99.90;;;;;;7397067;19;20018;-55
2022/12/27 09:36:23;;;;;;;12.05;3.40;;;6.30;99.90;;;;;;7397524;19;20482;-56
2022/12/27 09:38:56;;;;;;;12.65;3.47;;;6.20;99.90;;;;;;7393111;19;20022;-56
2022/12/27 09:41:48;;;;;;;9.10;3.05;;;6.40;99.90;;;;;;7398320;19;20015;-56
2022/12/27 09:44:34;;;;;;;15.38;4.00;;;6.60;99.90;;;;;;7399044;19;20025;-57
2022/12/27 09:47:13;;;;;;;9.60;3.28;;;6.50;99.90;;;;;;7397989;19;20046;-56
2022/12/27 09:49:48;;;;;;;13.05;3.55;;;6.50;99.90;;;;;;7388428;19;20395;-55
2022/12/27 09:52:27;;;;;;;17.58;3.75;;;6.40;99.90;;;;;;7391183;19;20023;-54
2022/12/27 09:55:19;;;;;;;13.73;3.75;;;6.20;99.90;;;;;;7383409;19;20510;-53
2022/12/27 09:57:46;;;;;;;12.98;3.38;;;6.10;99.90;;;;;;7385650;19;20784;-56
2022/12/27 10:00:18;;;;;;;11.10;3.58;;;6.10;99.90;;;;;;7371908;19;20022;-50
2022/12/27 10:02:45;;;;;;;13.50;3.70;;;6.40;99.90;;;;;;7369846;19;20026;-55
2022/12/27 10:05:22;;;;;;;12.93;4.10;;;6.50;99.90;;;;;;7366702;19;20018;-55
2022/12/27 10:08:29;;;;;;;12.32;3.80;;;6.60;99.90;;;;;;7365351;19;20056;-55
2022/12/27 10:11:34;;;;;;;13.25;4.10;;;6.50;99.90;;;;;;7362722;19;20114;-55
2022/12/27 10:14:04;;;;;;;18.25;3.50;;;6.40;99.90;;;;;;7367770;19;20447;-55
2022/12/27 10:16:52;;;;;;;9.75;3.70;;;6.30;99.90;;;;;;7368345;19;20019;-54
2022/12/27 10:19:43;;;;;;;7.60;2.65;;;6.50;99.90;;;;;;7363634;19;20041;-55
2022/12/27 10:22:33;;;;;;;13.10;3.77;;;6.60;99.90;;;;;;7367947;19;20018;-55
2022/12/27 10:25:04;;;;;;;16.42;4.63;;;6.60;99.90;;;;;;7366230;19;20014;-55
2022/12/27 10:27:30;;;;;;;8.02;3.00;;;6.90;99.90;;;;;;7367668;19;20522;-55
2022/12/27 10:29:58;;;;;;;13.13;3.38;;;7.10;99.90;;;;;;7370258;19;20015;-55
2022/12/27 10:32:25;;;;;;;15.10;3.67;;;7.40;99.90;;;;;;7367875;19;20025;-56
2022/12/27 10:35:00;;;;;;;9.80;3.10;;;7.50;99.90;;;;;;7365438;19;20014;-53
2022/12/27 10:37:28;;;;;;;20.23;4.10;;;7.50;99.90;;;;;;7370702;19;20015;-47
2022/12/27 10:40:06;;;;;;;13.05;3.38;;;7.60;99.90;;;;;;7365692;19;20021;-47
2022/12/27 10:42:44;;;;;;;10.55;3.20;;;7.40;99.90;;;;;;7367227;19;20029;-47
2022/12/27 10:45:35;;;;;;;9.68;3.40;;;7.20;99.90;;;;;;7368665;19;20019;-50
2022/12/27 10:48:20;;;;;;;8.65;2.97;;;7.10;99.90;;;;;;7366580;19;20011;-49
2022/12/27 10:51:06;;;;;;;14.02;3.70;;;6.90;99.90;;;;;;7369613;19;20058;-51
2022/12/27 10:53:37;;;;;;;12.98;3.50;;;7.20;99.90;;;;;;7367845;19;20438;-50
2022/12/27 10:56:12;;;;;;;11.27;2.50;;;7.60;99.90;;;;;;7366792;19;20024;-55
2022/12/27 10:58:45;;;;;;;9.77;3.28;;;8.00;99.90;;;;;;7369833;19;20512;-55
2022/12/27 11:01:23;;;;;;;10.90;3.65;;;8.30;99.90;;;;;;7367562;19;20014;-56
2022/12/27 11:03:51;;;;;;;11.88;3.28;;;8.50;99.90;;;;;;7367229;19;20026;-55
2022/12/27 11:06:24;;;;;;;12.43;3.67;;;8.90;99.90;;;;;;7365216;19;20018;-54
2022/12/27 11:08:52;;;;;;;12.85;3.10;;;9.40;99.90;;;;;;7369934;19;20502;-55
2022/12/27 11:11:23;;;;;;;10.95;3.55;;;9.40;99.90;;;;;;7365860;19;20089;-49
2022/12/27 11:13:50;;;;;;;9.77;3.05;;;9.20;99.90;;;;;;7367357;19;20042;-54
2022/12/27 11:16:26;;;;;;;13.25;3.45;;;9.00;99.90;;;;;;7363472;19;20022;-51
2022/12/27 11:18:56;;;;;;;12.75;3.28;;;8.60;99.90;;;;;;7365984;19;20782;-51
2022/12/27 11:21:23;;;;;;;12.40;3.08;;;8.50;99.90;;;;;;7364122;19;20022;-49
2022/12/27 11:23:53;;;;;;;13.98;3.28;;;8.60;99.90;;;;;;7367258;19;20022;-55
2022/12/27 11:26:26;;;;;;;10.52;2.58;;;8.40;99.90;;;;;;7360086;19;20030;-56
2022/12/27 11:28:59;;;;;;;13.38;3.38;;;8.60;99.90;;;;;;7367937;19;20022;-52
2022/12/27 11:31:38;;;;;;;10.63;2.70;;;8.70;99.90;;;;;;7364074;19;20073;-51
2022/12/27 11:34:33;;;;;;;11.52;2.75;;;8.50;99.90;;;;;;7364590;19;20019;-49
2022/12/27 11:37:24;;;;;;;11.00;3.08;;;8.50;99.90;;;;;;7363868;19;20366;-52
2022/12/27 11:40:21;;;;;;;12.13;3.40;;;8.50;99.90;;;;;;7343155;19;20023;-50
2022/12/27 11:42:53;;;;;;;9.68;3.33;;;8.80;99.90;;;;;;7364502;19;20365;-56
2022/12/27 11:45:27;;;;;;;9.88;3.30;;;8.90;99.90;;;;;;7363780;19;20473;-55
2022/12/27 11:48:18;;;;;;;13.18;3.35;;;8.80;99.90;;;;;;7361791;19;20506;-55
2022/12/27 11:51:17;;;;;;;9.48;3.30;;;8.90;99.90;;;;;;7364626;19;20376;-55
2022/12/27 11:54:11;;;;;;;12.20;2.72;;;9.00;99.90;;;;;;7362799;19;20022;-50
2022/12/27 11:56:49;;;;;;;10.07;2.65;;;8.90;99.90;;;;;;7361618;19;20029;-51
2022/12/27 11:59:58;;;;;;;10.50;3.15;;;8.80;99.90;;;;;;7362721;19;20379;-52
2022/12/27 12:02:57;;;;;;;8.73;2.88;;;8.40;99.90;;;;;;7361504;19;20385;-52
2022/12/27 12:05:36;;;;;;;15.48;3.53;;;8.20;99.90;;;;;;7363918;19;20485;-49
2022/12/27 12:08:12;;;;;;;13.23;3.25;;;8.00;99.90;;;;;;7360230;19;20094;-55
2022/12/27 12:10:52;;;;;;;8.98;2.95;;;7.90;99.90;;;;;;7357747;19;20015;-56
2022/12/27 12:13:31;;;;;;;14.07;3.55;;;7.80;99.90;;;;;;7361544;19;20041;-50
2022/12/27 12:16:25;;;;;;;17.15;3.30;;;7.70;99.90;;;;;;7363081;19;20569;-48
2022/12/27 12:19:34;;;;;;;16.52;5.25;;;7.60;99.90;;;;;;7365680;19;20025;-49
2022/12/27 12:22:16;;;;;;;11.85;3.88;;;7.60;99.90;;;;;;7360713;19;20037;-55
2022/12/27 12:24:57;;;;;;;11.90;4.47;;;7.80;99.90;;;;;;7363860;19;20384;-55
2022/12/27 12:28:07;;;;;;;11.38;3.72;;;8.10;99.90;;;;;;7362783;19;20046;-51
2022/12/27 12:30:58;;;;;;;14.77;4.35;;;8.50;99.90;;;;;;7360728;19;20035;-51
2022/12/27 12:33:45;;;;;;;14.45;3.85;;;8.80;99.90;;;;;;7363329;19;20011;-51
2022/12/27 12:36:43;;;;;;;11.90;3.22;;;9.00;99.90;;;;;;7359160;19;20538;-50
2022/12/27 12:39:29;;;;;;;11.13;3.25;;;8.50;99.90;;;;;;7366410;19;20019;-55
2022/12/27 12:42:13;;;;;;;11.32;3.70;;;8.30;99.90;;;;;;7368626;19;20441;-50
2022/12/27 12:45:24;;;;;;;8.60;3.15;;;8.20;99.90;;;;;;7369883;19;20022;-48
2022/12/27 12:48:05;;;;;;;14.00;3.65;;;8.00;99.90;;;;;;7368737;19;20500;-51
2022/12/27 12:50:49;;;;;;;9.13;3.40;;;8.30;99.90;;;;;;7369256;19;20022;-51
2022/12/27 12:53:45;;;;;;;12.52;4.05;;;8.20;99.90;;;;;;7367282;19;20298;-50
2022/12/27 12:56:12;;;;;;;10.60;3.90;;;8.00;99.90;;;;;;7366480;19;20508;-56
2022/12/27 12:58:53;;;;;;;13.25;4.15;;;7.90;99.90;;;;;;7365577;19;20030;-56
2022/12/27 13:01:40;;;;;;;12.07;4.80;;;7.70;99.90;;;;;;7361859;19;20600;-56
2022/12/27 13:04:18;;;;;;;10.60;4.05;;;7.60;99.90;;;;;;7368587;19;20018;-56
2022/12/27 13:07:18;;;;;;;15.70;5.35;;;7.60;99.90;;;;;;7371682;19;20029;-56
2022/12/27 13:10:11;;;;;;;13.93;5.15;;;7.60;99.90;;;;;;7370570;19;20652;-56
2022/12/27 13:12:50;;;;;;;15.40;5.43;;;7.70;99.90;;;;;;7370824;19;20018;-55
2022/12/27 13:15:26;;;;;;;13.10;5.78;;;7.90;99.90;;;;;;7368097;19;20596;-55
2022/12/27 13:18:07;;;;;;;14.93;6.05;;;7.90;99.90;;;;;;7369851;19;20078;-56
2022/12/27 13:20:49;;;;;;;12.43;7.00;;;8.00;99.90;;;;;;7366700;19;20024;-56
2022/12/27 13:23:42;;;;;;;15.18;7.20;;;7.90;99.90;;;;;;7367162;19;20014;-56
2022/12/27 13:27:02;;;;;;;17.38;8.13;;;8.00;99.90;;;;;;7366808;19;20361;-55
2022/12/27 13:29:36;;;;;;;13.18;8.30;;;8.20;99.90;;;;;;7365218;19;20022;-56
2022/12/27 13:32:30;;;;;;;15.73;8.98;;;8.30;99.90;;;;;;7367399;19;20051;-56
2022/12/27 13:35:47;;;;;;;15.43;8.95;;;8.40;99.90;;;;;;7365773;19;20014;-56
2022/12/27 13:38:57;;;;;;;19.40;9.98;;;8.10;99.90;;;;;;7363816;19;20030;-56
2022/12/27 13:41:34;;;;;;;14.55;10.40;;;7.80;99.90;;;;;;7361420;19;20086;-56
2022/12/27 13:44:19;;;;;;;18.77;10.68;;;7.90;99.90;;;;;;7369317;19;20018;-56
2022/12/27 13:47:14;;;;;;;14.93;10.68;;;7.90;99.90;;;;;;7364277;19;20026;-56
2022/12/27 13:50:01;;;;;;;16.70;11.20;;;7.90;99.90;;;;;;7361280;19;20011;-56
2022/12/27 13:53:02;;;;;;;15.00;11.98;;;8.00;99.90;;;;;;7364204;19;20031;-55
2022/12/27 13:55:57;;;;;;;19.35;12.18;;;7.90;99.90;;;;;;7368555;19;20508;-56
2022/12/27 13:58:35;;;;;;;18.75;13.00;;;7.90;99.90;;;;;;7364213;19;20020;-56
2022/12/27 14:01:24;;;;;;;18.90;12.65;;;7.80;99.90;;;;;;7362285;19;20236;-56
2022/12/27 14:04:04;;;;;;;19.30;12.90;;;7.60;99.90;;;;;;7365565;19;20022;-55
2022/12/27 14:07:12;;;;;;;19.27;13.43;;;7.50;99.90;;;;;;7366401;19;20022;-56
2022/12/27 14:09:44;;;;;;;22.08;14.05;;;7.40;99.90;;;;;;7367947;19;20596;-56
2022/12/27 14:12:36;;;;;;;18.48;14.48;;;7.30;99.90;;;;;;7363239;19;20734;-56
2022/12/27 14:15:05;;;;;;;20.77;14.93;;;7.20;99.90;;;;;;7365321;19;20038;-56
2022/12/27 14:17:51;;;;;;;20.23;14.10;;;7.10;99.90;;;;;;7365187;19;20014;-54
2022/12/27 14:20:46;;;;;;;18.92;14.32;;;7.10;99.90;;;;;;7356095;19;20032;-56
2022/12/27 14:23:21;;;;;;;17.00;14.50;;;7.00;99.90;;;;;;7362618;19;20038;-56
2022/12/27 14:26:20;;;;;;;21.23;15.18;;;6.90;99.90;;;;;;7365327;19;20431;-58
2022/12/27 14:29:00;;;;;;;21.20;15.18;;;6.80;99.90;;;;;;7365455;19;20011;-56
2022/12/27 14:31:48;;;;;;;20.67;15.80;;;6.80;99.90;;;;;;7362685;19;20707;-56
2022/12/27 14:34:20;;;;;;;20.60;15.73;;;6.80;99.90;;;;;;7366017;19;20907;-51
2022/12/27 14:37:05;;;;;;;;;;;6.70;99.90;;;;;;7362064;19;20022;-56
2022/12/27 14:39:40;;;;;;;20.85;16.27;;;6.70;99.90;;;;;;7365118;19;20339;-56
2022/12/27 14:42:37;;;;;;;21.80;16.60;;;6.60;99.90;;;;;;7364633;19;20025;-51
2022/12/27 14:45:37;;;;;;;24.70;17.75;;;6.50;99.90;;;;;;7359917;19;20029;-50
2022/12/27 14:48:04;;;;;;;20.50;17.13;;;6.40;99.90;;;;;;7362457;19;20126;-49
2022/12/27 14:50:42;;;;;;;27.70;18.17;;;6.40;99.90;;;;;;7361639;19;20474;-51
2022/12/27 14:53:45;;;;;;;24.67;19.10;;;6.30;99.90;;;;;;7359773;19;20014;-57
2022/12/27 14:56:37;;;;;;;21.45;18.58;;;6.30;99.90;;;;;;7362237;19;20041;-50
2022/12/27 14:59:31;;;;;;;21.23;18.77;;;6.30;99.90;;;;;;7366406;19;20025;-56
2022/12/27 15:02:02;;;;;;;26.65;21.33;;;6.30;99.90;;;;;;7362195;19;20023;-56
2022/12/27 15:04:49;;;;;;;26.20;22.67;;;6.20;99.90;;;;;;7363620;19;20118;-52
2022/12/27 15:07:34;;;;;;;26.83;22.88;;;6.20;99.90;;;;;;7358197;19;20037;-56
2022/12/27 15:10:21;;;;;;;24.10;21.50;;;6.20;99.90;;;;;;7366749;19;20082;-50
2022/12/27 15:13:11;;;;;;;26.10;22.63;;;6.20;99.90;;;;;;7361736;19;20015;-50
2022/12/27 15:16:22;;;;;;;26.27;22.02;;;6.20;99.90;;;;;;7364688;19;20109;-56
2022/12/27 15:18:49;;;;;;;27.35;22.77;;;6.20;99.90;;;;;;7366491;19;20132;-56
2022/12/27 15:21:23;;;;;;;28.60;22.25;;;6.10;99.90;;;;;;7361779;19;20037;-55
2022/12/27 15:23:53;;;;;;;24.25;20.73;;;6.00;99.90;;;;;;7367262;19;20022;-55
2022/12/27 15:27:04;;;;;;;25.45;20.85;;;6.00;99.90;;;;;;7361539;19;20021;-56